sensor_id;sensor_type;location;lat;lon;timestamp;P1;durP1;ratioP1;P2;durP2;ratioP2
78143;SDS011;67394;52.522;13.622;2023-06-22T00:02:21;8.85;;;4.93;;
78143;SDS011;67394;52.522;13.622;2023-06-22T00:04:47;8.75;;;4.78;;
78143;SDS011;67394;52.522;13.622;2023-06-22T00:07:14;7.38;;;4.82;;
78143;SDS011;67394;52.522;13.622;2023-06-22T00:09:40;9.57;;;5.45;;
78143;SDS011;67394;52.522;13.622;2023-06-22T00:12:07;8.93;;;5.05;;
78143;SDS011;67394;52.522;13.622;2023-06-22T00:14:34;6.93;;;4.40;;
78143;SDS011;67394;52.522;13.622;2023-06-22T00:19:27;7.78;;;4.45;;
78143;SDS011;67394;52.522;13.622;2023-06-22T00:24:21;7.55;;;4.43;;
78143;SDS011;67394;52.522;13.622;2023-06-22T00:26:48;6.05;;;4.50;;
78143;SDS011;67394;52.522;13.622;2023-06-22T00:29:15;7.63;;;4.63;;
78143;SDS011;67394;52.522;13.622;2023-06-22T00:31:42;7.22;;;4.20;;
78143;SDS011;67394;52.522;13.622;2023-06-22T00:34:09;5.82;;;4.13;;
78143;SDS011;67394;52.522;13.622;2023-06-22T00:36:36;9.88;;;5.15;;
78143;SDS011;67394;52.522;13.622;2023-06-22T00:39:03;6.50;;;4.30;;
78143;SDS011;67394;52.522;13.622;2023-06-22T00:41:29;5.13;;;3.63;;
78143;SDS011;67394;52.522;13.622;2023-06-22T00:43:58;5.45;;;3.97;;
78143;SDS011;67394;52.522;13.622;2023-06-22T00:46:26;6.60;;;4.35;;
78143;SDS011;67394;52.522;13.622;2023-06-22T00:48:53;6.88;;;4.38;;
78143;SDS011;67394;52.522;13.622;2023-06-22T00:51:20;4.97;;;3.70;;
78143;SDS011;67394;52.522;13.622;2023-06-22T00:53:47;6.60;;;4.60;;
78143;SDS011;67394;52.522;13.622;2023-06-22T00:56:14;5.70;;;4.03;;
78143;SDS011;67394;52.522;13.622;2023-06-22T00:58:41;7.45;;;4.75;;
78143;SDS011;67394;52.522;13.622;2023-06-22T01:01:08;4.93;;;3.80;;
78143;SDS011;67394;52.522;13.622;2023-06-22T01:06:05;5.93;;;3.78;;
78143;SDS011;67394;52.522;13.622;2023-06-22T01:11:25;7.10;;;3.97;;
78143;SDS011;67394;52.522;13.622;2023-06-22T01:14:10;5.93;;;4.38;;
78143;SDS011;67394;52.522;13.622;2023-06-22T01:16:42;8.07;;;5.00;;
78143;SDS011;67394;52.522;13.622;2023-06-22T01:19:35;5.65;;;4.30;;
78143;SDS011;67394;52.522;13.622;2023-06-22T01:22:17;6.45;;;3.58;;
78143;SDS011;67394;52.522;13.622;2023-06-22T01:32:33;6.43;;;4.65;;
78143;SDS011;67394;52.522;13.622;2023-06-22T01:35:03;6.57;;;4.18;;
78143;SDS011;67394;52.522;13.622;2023-06-22T01:37:33;7.10;;;5.10;;
78143;SDS011;67394;52.522;13.622;2023-06-22T01:40:01;7.32;;;5.13;;
78143;SDS011;67394;52.522;13.622;2023-06-22T01:42:30;6.63;;;4.75;;
78143;SDS011;67394;52.522;13.622;2023-06-22T01:44:57;7.18;;;4.38;;
78143;SDS011;67394;52.522;13.622;2023-06-22T01:47:25;6.75;;;4.53;;
78143;SDS011;67394;52.522;13.622;2023-06-22T01:49:53;9.02;;;4.65;;
78143;SDS011;67394;52.522;13.622;2023-06-22T01:52:20;7.88;;;4.78;;
78143;SDS011;67394;52.522;13.622;2023-06-22T01:54:47;8.32;;;4.55;;
78143;SDS011;67394;52.522;13.622;2023-06-22T01:57:14;8.55;;;4.55;;
78143;SDS011;67394;52.522;13.622;2023-06-22T02:02:30;6.13;;;4.25;;
78143;SDS011;67394;52.522;13.622;2023-06-22T02:05:04;8.30;;;5.43;;
78143;SDS011;67394;52.522;13.622;2023-06-22T02:07:34;7.80;;;5.00;;
78143;SDS011;67394;52.522;13.622;2023-06-22T02:10:05;8.23;;;4.75;;
78143;SDS011;67394;52.522;13.622;2023-06-22T02:12:34;6.88;;;4.75;;
78143;SDS011;67394;52.522;13.622;2023-06-22T02:15:02;9.20;;;5.63;;
78143;SDS011;67394;52.522;13.622;2023-06-22T02:17:29;8.55;;;5.13;;
78143;SDS011;67394;52.522;13.622;2023-06-22T02:22:23;6.93;;;4.75;;
78143;SDS011;67394;52.522;13.622;2023-06-22T02:24:49;7.88;;;4.82;;
78143;SDS011;67394;52.522;13.622;2023-06-22T02:27:16;9.73;;;5.22;;
78143;SDS011;67394;52.522;13.622;2023-06-22T02:29:42;9.27;;;6.00;;
78143;SDS011;67394;52.522;13.622;2023-06-22T02:32:12;9.45;;;5.53;;
78143;SDS011;67394;52.522;13.622;2023-06-22T02:34:38;9.68;;;5.68;;
78143;SDS011;67394;52.522;13.622;2023-06-22T02:37:05;10.60;;;6.18;;
78143;SDS011;67394;52.522;13.622;2023-06-22T02:39:32;8.13;;;5.10;;
78143;SDS011;67394;52.522;13.622;2023-06-22T02:41:58;9.75;;;6.07;;
78143;SDS011;67394;52.522;13.622;2023-06-22T02:46:51;11.23;;;5.15;;
78143;SDS011;67394;52.522;13.622;2023-06-22T02:51:46;9.82;;;5.25;;
78143;SDS011;67394;52.522;13.622;2023-06-22T02:54:13;8.63;;;6.35;;
78143;SDS011;67394;52.522;13.622;2023-06-22T02:56:40;8.10;;;5.55;;
78143;SDS011;67394;52.522;13.622;2023-06-22T03:01:33;9.40;;;5.93;;
78143;SDS011;67394;52.522;13.622;2023-06-22T03:06:26;7.18;;;4.80;;
78143;SDS011;67394;52.522;13.622;2023-06-22T03:08:57;8.02;;;5.60;;
78143;SDS011;67394;52.522;13.622;2023-06-22T03:11:26;9.68;;;5.88;;
78143;SDS011;67394;52.522;13.622;2023-06-22T03:16:19;8.38;;;4.82;;
78143;SDS011;67394;52.522;13.622;2023-06-22T03:18:48;7.68;;;5.35;;
78143;SDS011;67394;52.522;13.622;2023-06-22T03:21:15;8.63;;;5.40;;
78143;SDS011;67394;52.522;13.622;2023-06-22T03:23:42;8.25;;;4.97;;
78143;SDS011;67394;52.522;13.622;2023-06-22T03:26:09;10.25;;;6.28;;
78143;SDS011;67394;52.522;13.622;2023-06-22T03:28:37;8.50;;;5.05;;
78143;SDS011;67394;52.522;13.622;2023-06-22T03:31:04;7.30;;;5.10;;
78143;SDS011;67394;52.522;13.622;2023-06-22T03:33:30;10.68;;;5.97;;
78143;SDS011;67394;52.522;13.622;2023-06-22T03:35:57;8.93;;;4.93;;
78143;SDS011;67394;52.522;13.622;2023-06-22T03:38:24;8.23;;;5.32;;
78143;SDS011;67394;52.522;13.622;2023-06-22T03:40:50;8.95;;;5.70;;
78143;SDS011;67394;52.522;13.622;2023-06-22T03:43:17;8.10;;;5.00;;
78143;SDS011;67394;52.522;13.622;2023-06-22T03:45:43;6.50;;;4.88;;
78143;SDS011;67394;52.522;13.622;2023-06-22T03:50:37;6.88;;;4.65;;
78143;SDS011;67394;52.522;13.622;2023-06-22T03:53:04;8.77;;;5.65;;
78143;SDS011;67394;52.522;13.622;2023-06-22T03:55:31;8.07;;;5.43;;
78143;SDS011;67394;52.522;13.622;2023-06-22T03:58:00;8.30;;;5.60;;
78143;SDS011;67394;52.522;13.622;2023-06-22T04:00:26;7.93;;;5.35;;
78143;SDS011;67394;52.522;13.622;2023-06-22T04:02:53;7.35;;;5.18;;
78143;SDS011;67394;52.522;13.622;2023-06-22T04:05:20;7.35;;;4.88;;
78143;SDS011;67394;52.522;13.622;2023-06-22T04:07:47;6.78;;;4.18;;
78143;SDS011;67394;52.522;13.622;2023-06-22T04:10:14;7.40;;;4.38;;
78143;SDS011;67394;52.522;13.622;2023-06-22T04:12:43;7.18;;;4.30;;
78143;SDS011;67394;52.522;13.622;2023-06-22T04:17:37;7.75;;;4.05;;
78143;SDS011;67394;52.522;13.622;2023-06-22T04:22:30;6.97;;;4.45;;
78143;SDS011;67394;52.522;13.622;2023-06-22T04:27:24;4.93;;;3.60;;
78143;SDS011;67394;52.522;13.622;2023-06-22T04:29:50;5.35;;;3.70;;
78143;SDS011;67394;52.522;13.622;2023-06-22T04:32:17;6.75;;;4.32;;
78143;SDS011;67394;52.522;13.622;2023-06-22T04:34:44;6.53;;;4.28;;
78143;SDS011;67394;52.522;13.622;2023-06-22T04:37:10;4.68;;;3.90;;
78143;SDS011;67394;52.522;13.622;2023-06-22T04:39:39;5.45;;;4.13;;
78143;SDS011;67394;52.522;13.622;2023-06-22T04:42:05;7.03;;;3.70;;
78143;SDS011;67394;52.522;13.622;2023-06-22T04:44:32;6.43;;;4.38;;
78143;SDS011;67394;52.522;13.622;2023-06-22T04:47:00;7.13;;;4.63;;
78143;SDS011;67394;52.522;13.622;2023-06-22T04:49:28;5.13;;;3.83;;
78143;SDS011;67394;52.522;13.622;2023-06-22T04:51:54;6.25;;;4.72;;
78143;SDS011;67394;52.522;13.622;2023-06-22T04:56:48;4.60;;;3.50;;
78143;SDS011;67394;52.522;13.622;2023-06-22T04:59:14;5.68;;;4.05;;
78143;SDS011;67394;52.522;13.622;2023-06-22T05:01:41;5.55;;;3.65;;
78143;SDS011;67394;52.522;13.622;2023-06-22T05:06:40;6.45;;;3.38;;
78143;SDS011;67394;52.522;13.622;2023-06-22T05:09:06;5.28;;;3.67;;
78143;SDS011;67394;52.522;13.622;2023-06-22T05:11:33;4.55;;;3.38;;
78143;SDS011;67394;52.522;13.622;2023-06-22T05:13:59;4.93;;;3.45;;
78143;SDS011;67394;52.522;13.622;2023-06-22T05:16:25;4.72;;;3.03;;
78143;SDS011;67394;52.522;13.622;2023-06-22T05:18:52;3.35;;;2.70;;
78143;SDS011;67394;52.522;13.622;2023-06-22T05:21:24;4.13;;;3.03;;
78143;SDS011;67394;52.522;13.622;2023-06-22T05:23:52;3.47;;;2.50;;
78143;SDS011;67394;52.522;13.622;2023-06-22T05:26:20;4.25;;;2.85;;
78143;SDS011;67394;52.522;13.622;2023-06-22T05:28:47;4.55;;;2.42;;
78143;SDS011;67394;52.522;13.622;2023-06-22T05:31:14;2.97;;;2.08;;
78143;SDS011;67394;52.522;13.622;2023-06-22T05:33:42;5.03;;;2.72;;
78143;SDS011;67394;52.522;13.622;2023-06-22T05:36:10;3.70;;;2.40;;
78143;SDS011;67394;52.522;13.622;2023-06-22T05:38:36;3.25;;;2.58;;
78143;SDS011;67394;52.522;13.622;2023-06-22T05:41:03;2.65;;;1.73;;
78143;SDS011;67394;52.522;13.622;2023-06-22T05:43:29;3.30;;;2.10;;
78143;SDS011;67394;52.522;13.622;2023-06-22T05:45:56;2.85;;;1.98;;
78143;SDS011;67394;52.522;13.622;2023-06-22T05:48:23;2.13;;;1.63;;
78143;SDS011;67394;52.522;13.622;2023-06-22T05:50:49;3.85;;;2.13;;
78143;SDS011;67394;52.522;13.622;2023-06-22T05:53:16;4.03;;;2.30;;
78143;SDS011;67394;52.522;13.622;2023-06-22T05:55:42;3.03;;;2.10;;
78143;SDS011;67394;52.522;13.622;2023-06-22T05:58:08;3.17;;;2.22;;
78143;SDS011;67394;52.522;13.622;2023-06-22T06:00:35;4.90;;;2.45;;
78143;SDS011;67394;52.522;13.622;2023-06-22T06:03:02;3.72;;;2.47;;
78143;SDS011;67394;52.522;13.622;2023-06-22T06:07:59;3.97;;;2.53;;
78143;SDS011;67394;52.522;13.622;2023-06-22T06:10:27;3.28;;;2.25;;
78143;SDS011;67394;52.522;13.622;2023-06-22T06:12:54;3.50;;;2.10;;
78143;SDS011;67394;52.522;13.622;2023-06-22T06:15:20;4.85;;;2.40;;
78143;SDS011;67394;52.522;13.622;2023-06-22T06:17:50;3.90;;;2.13;;
78143;SDS011;67394;52.522;13.622;2023-06-22T06:20:19;2.72;;;1.83;;
78143;SDS011;67394;52.522;13.622;2023-06-22T06:22:49;3.97;;;2.10;;
78143;SDS011;67394;52.522;13.622;2023-06-22T06:25:16;2.47;;;2.03;;
78143;SDS011;67394;52.522;13.622;2023-06-22T06:27:43;2.92;;;2.20;;
78143;SDS011;67394;52.522;13.622;2023-06-22T06:30:12;3.30;;;1.70;;
78143;SDS011;67394;52.522;13.622;2023-06-22T06:32:40;5.45;;;2.78;;
78143;SDS011;67394;52.522;13.622;2023-06-22T06:35:07;2.97;;;2.00;;
78143;SDS011;67394;52.522;13.622;2023-06-22T06:37:36;2.72;;;1.90;;
78143;SDS011;67394;52.522;13.622;2023-06-22T06:40:04;2.92;;;2.17;;
78143;SDS011;67394;52.522;13.622;2023-06-22T06:42:34;3.17;;;1.83;;
78143;SDS011;67394;52.522;13.622;2023-06-22T06:45:00;3.47;;;1.70;;
78143;SDS011;67394;52.522;13.622;2023-06-22T06:47:27;3.92;;;2.45;;
78143;SDS011;67394;52.522;13.622;2023-06-22T06:49:53;2.75;;;2.03;;
78143;SDS011;67394;52.522;13.622;2023-06-22T06:52:20;2.92;;;2.13;;
78143;SDS011;67394;52.522;13.622;2023-06-22T06:54:46;2.92;;;2.17;;
78143;SDS011;67394;52.522;13.622;2023-06-22T06:57:13;2.95;;;2.00;;
78143;SDS011;67394;52.522;13.622;2023-06-22T06:59:39;3.88;;;2.13;;
78143;SDS011;67394;52.522;13.622;2023-06-22T07:02:05;2.90;;;2.05;;
78143;SDS011;67394;52.522;13.622;2023-06-22T07:04:32;3.75;;;2.20;;
78143;SDS011;67394;52.522;13.622;2023-06-22T07:07:00;3.90;;;2.08;;
78143;SDS011;67394;52.522;13.622;2023-06-22T07:09:27;3.10;;;1.73;;
78143;SDS011;67394;52.522;13.622;2023-06-22T07:11:54;3.95;;;2.20;;
78143;SDS011;67394;52.522;13.622;2023-06-22T07:14:20;3.55;;;1.95;;
78143;SDS011;67394;52.522;13.622;2023-06-22T07:16:47;2.83;;;2.08;;
78143;SDS011;67394;52.522;13.622;2023-06-22T07:19:13;2.97;;;1.67;;
78143;SDS011;67394;52.522;13.622;2023-06-22T07:21:40;4.43;;;1.77;;
78143;SDS011;67394;52.522;13.622;2023-06-22T07:24:06;5.45;;;1.73;;
78143;SDS011;67394;52.522;13.622;2023-06-22T07:26:33;2.35;;;1.83;;
78143;SDS011;67394;52.522;13.622;2023-06-22T07:29:00;3.03;;;1.83;;
78143;SDS011;67394;52.522;13.622;2023-06-22T07:31:26;4.07;;;2.50;;
78143;SDS011;67394;52.522;13.622;2023-06-22T07:33:53;3.08;;;2.00;;
78143;SDS011;67394;52.522;13.622;2023-06-22T07:36:19;2.97;;;1.92;;
78143;SDS011;67394;52.522;13.622;2023-06-22T07:38:46;2.72;;;1.80;;
78143;SDS011;67394;52.522;13.622;2023-06-22T07:41:12;3.28;;;1.60;;
78143;SDS011;67394;52.522;13.622;2023-06-22T07:43:39;3.78;;;1.90;;
78143;SDS011;67394;52.522;13.622;2023-06-22T07:46:05;2.40;;;1.80;;
78143;SDS011;67394;52.522;13.622;2023-06-22T07:48:32;3.95;;;1.90;;
78143;SDS011;67394;52.522;13.622;2023-06-22T07:50:58;2.67;;;1.70;;
78143;SDS011;67394;52.522;13.622;2023-06-22T07:53:25;3.65;;;2.42;;
78143;SDS011;67394;52.522;13.622;2023-06-22T07:55:51;2.55;;;2.03;;
78143;SDS011;67394;52.522;13.622;2023-06-22T07:58:18;2.55;;;1.80;;
78143;SDS011;67394;52.522;13.622;2023-06-22T08:00:44;3.15;;;2.00;;
78143;SDS011;67394;52.522;13.622;2023-06-22T08:03:10;3.75;;;2.22;;
78143;SDS011;67394;52.522;13.622;2023-06-22T08:08:04;3.75;;;2.15;;
78143;SDS011;67394;52.522;13.622;2023-06-22T08:10:30;2.67;;;1.90;;
78143;SDS011;67394;52.522;13.622;2023-06-22T08:12:56;2.53;;;1.85;;
78143;SDS011;67394;52.522;13.622;2023-06-22T08:15:23;3.92;;;2.25;;
78143;SDS011;67394;52.522;13.622;2023-06-22T08:17:49;3.97;;;1.90;;
78143;SDS011;67394;52.522;13.622;2023-06-22T08:20:16;3.63;;;2.08;;
78143;SDS011;67394;52.522;13.622;2023-06-22T08:22:42;3.70;;;2.28;;
78143;SDS011;67394;52.522;13.622;2023-06-22T08:25:10;2.90;;;2.05;;
78143;SDS011;67394;52.522;13.622;2023-06-22T08:27:37;2.40;;;1.77;;
78143;SDS011;67394;52.522;13.622;2023-06-22T08:30:03;3.42;;;2.05;;
78143;SDS011;67394;52.522;13.622;2023-06-22T08:32:31;3.75;;;2.13;;
78143;SDS011;67394;52.522;13.622;2023-06-22T08:34:57;3.70;;;2.28;;
78143;SDS011;67394;52.522;13.622;2023-06-22T08:39:50;2.67;;;1.73;;
78143;SDS011;67394;52.522;13.622;2023-06-22T08:42:16;2.25;;;1.60;;
78143;SDS011;67394;52.522;13.622;2023-06-22T08:44:43;2.25;;;1.63;;
78143;SDS011;67394;52.522;13.622;2023-06-22T08:47:09;2.70;;;2.20;;
78143;SDS011;67394;52.522;13.622;2023-06-22T08:49:35;2.63;;;1.95;;
78143;SDS011;67394;52.522;13.622;2023-06-22T08:52:02;3.35;;;2.20;;
78143;SDS011;67394;52.522;13.622;2023-06-22T08:54:29;2.47;;;1.92;;
78143;SDS011;67394;52.522;13.622;2023-06-22T08:56:55;2.75;;;2.10;;
78143;SDS011;67394;52.522;13.622;2023-06-22T08:59:22;3.03;;;1.85;;
78143;SDS011;67394;52.522;13.622;2023-06-22T09:01:48;3.17;;;2.15;;
78143;SDS011;67394;52.522;13.622;2023-06-22T09:04:14;3.53;;;2.22;;
78143;SDS011;67394;52.522;13.622;2023-06-22T09:06:41;2.80;;;2.10;;
78143;SDS011;67394;52.522;13.622;2023-06-22T09:11:34;1.98;;;1.65;;
78143;SDS011;67394;52.522;13.622;2023-06-22T09:14:00;2.30;;;1.60;;
78143;SDS011;67394;52.522;13.622;2023-06-22T09:18:53;2.85;;;2.00;;
78143;SDS011;67394;52.522;13.622;2023-06-22T09:21:20;2.60;;;1.83;;
78143;SDS011;67394;52.522;13.622;2023-06-22T09:26:12;2.85;;;2.13;;
78143;SDS011;67394;52.522;13.622;2023-06-22T09:31:05;3.80;;;2.20;;
78143;SDS011;67394;52.522;13.622;2023-06-22T09:35:58;2.80;;;1.95;;
78143;SDS011;67394;52.522;13.622;2023-06-22T09:38:24;2.50;;;1.80;;
78143;SDS011;67394;52.522;13.622;2023-06-22T09:40:51;2.60;;;1.80;;
78143;SDS011;67394;52.522;13.622;2023-06-22T09:43:17;3.03;;;2.05;;
78143;SDS011;67394;52.522;13.622;2023-06-22T09:45:44;5.38;;;2.47;;
78143;SDS011;67394;52.522;13.622;2023-06-22T09:50:37;2.70;;;1.80;;
78143;SDS011;67394;52.522;13.622;2023-06-22T09:55:29;3.58;;;2.15;;
78143;SDS011;67394;52.522;13.622;2023-06-22T09:57:56;2.75;;;2.08;;
78143;SDS011;67394;52.522;13.622;2023-06-22T10:00:23;4.13;;;2.17;;
78143;SDS011;67394;52.522;13.622;2023-06-22T10:02:49;2.83;;;1.98;;
78143;SDS011;67394;52.522;13.622;2023-06-22T10:05:16;3.00;;;2.08;;
78143;SDS011;67394;52.522;13.622;2023-06-22T10:07:42;3.88;;;2.50;;
78143;SDS011;67394;52.522;13.622;2023-06-22T10:10:10;3.40;;;2.00;;
78143;SDS011;67394;52.522;13.622;2023-06-22T10:12:41;2.67;;;1.90;;
78143;SDS011;67394;52.522;13.622;2023-06-22T10:15:28;2.65;;;2.08;;
78143;SDS011;67394;52.522;13.622;2023-06-22T10:17:54;3.58;;;2.25;;
78143;SDS011;67394;52.522;13.622;2023-06-22T10:22:47;2.97;;;1.92;;
78143;SDS011;67394;52.522;13.622;2023-06-22T10:27:40;2.78;;;1.80;;
78143;SDS011;67394;52.522;13.622;2023-06-22T10:30:10;2.00;;;1.80;;
78143;SDS011;67394;52.522;13.622;2023-06-22T10:32:38;3.03;;;2.00;;
78143;SDS011;67394;52.522;13.622;2023-06-22T10:35:05;2.63;;;1.85;;
78143;SDS011;67394;52.522;13.622;2023-06-22T10:37:32;4.50;;;2.40;;
78143;SDS011;67394;52.522;13.622;2023-06-22T10:42:25;2.63;;;1.92;;
78143;SDS011;67394;52.522;13.622;2023-06-22T10:47:17;2.20;;;1.90;;
78143;SDS011;67394;52.522;13.622;2023-06-22T10:52:10;3.28;;;1.98;;
78143;SDS011;67394;52.522;13.622;2023-06-22T10:57:03;2.60;;;2.03;;
78143;SDS011;67394;52.522;13.622;2023-06-22T10:59:30;2.92;;;1.75;;
78143;SDS011;67394;52.522;13.622;2023-06-22T11:06:56;3.03;;;2.33;;
78143;SDS011;67394;52.522;13.622;2023-06-22T11:09:23;3.30;;;2.53;;
78143;SDS011;67394;52.522;13.622;2023-06-22T11:11:55;2.55;;;1.90;;
78143;SDS011;67394;52.522;13.622;2023-06-22T11:14:22;3.75;;;2.35;;
78143;SDS011;67394;52.522;13.622;2023-06-22T11:16:49;2.78;;;2.08;;
78143;SDS011;67394;52.522;13.622;2023-06-22T11:19:17;2.72;;;1.88;;
78143;SDS011;67394;52.522;13.622;2023-06-22T11:21:44;2.78;;;1.95;;
78143;SDS011;67394;52.522;13.622;2023-06-22T11:24:11;2.92;;;2.10;;
78143;SDS011;67394;52.522;13.622;2023-06-22T11:26:41;3.38;;;2.13;;
78143;SDS011;67394;52.522;13.622;2023-06-22T11:29:08;2.58;;;2.15;;
78143;SDS011;67394;52.522;13.622;2023-06-22T11:31:49;3.90;;;2.20;;
78143;SDS011;67394;52.522;13.622;2023-06-22T11:34:16;3.28;;;2.47;;
78143;SDS011;67394;52.522;13.622;2023-06-22T11:36:42;2.70;;;1.98;;
78143;SDS011;67394;52.522;13.622;2023-06-22T11:39:09;3.70;;;2.22;;
78143;SDS011;67394;52.522;13.622;2023-06-22T11:41:36;2.78;;;2.13;;
78143;SDS011;67394;52.522;13.622;2023-06-22T11:44:03;3.28;;;2.50;;
78143;SDS011;67394;52.522;13.622;2023-06-22T11:46:30;3.03;;;2.55;;
78143;SDS011;67394;52.522;13.622;2023-06-22T11:48:57;2.90;;;2.47;;
78143;SDS011;67394;52.522;13.622;2023-06-22T11:51:24;4.00;;;2.55;;
78143;SDS011;67394;52.522;13.622;2023-06-22T11:53:53;2.95;;;2.22;;
78143;SDS011;67394;52.522;13.622;2023-06-22T11:56:20;2.55;;;1.85;;
78143;SDS011;67394;52.522;13.622;2023-06-22T11:58:47;2.60;;;1.92;;
78143;SDS011;67394;52.522;13.622;2023-06-22T12:01:13;4.15;;;2.47;;
78143;SDS011;67394;52.522;13.622;2023-06-22T12:03:40;2.90;;;2.42;;
78143;SDS011;67394;52.522;13.622;2023-06-22T12:06:08;3.15;;;2.28;;
78143;SDS011;67394;52.522;13.622;2023-06-22T12:08:34;3.65;;;2.35;;
78143;SDS011;67394;52.522;13.622;2023-06-22T12:11:04;2.80;;;2.30;;
78143;SDS011;67394;52.522;13.622;2023-06-22T12:13:31;3.65;;;2.40;;
78143;SDS011;67394;52.522;13.622;2023-06-22T12:15:58;3.30;;;2.65;;
78143;SDS011;67394;52.522;13.622;2023-06-22T12:18:24;2.83;;;2.15;;
78143;SDS011;67394;52.522;13.622;2023-06-22T12:20:51;3.63;;;2.63;;
78143;SDS011;67394;52.522;13.622;2023-06-22T12:23:17;3.70;;;2.45;;
78143;SDS011;67394;52.522;13.622;2023-06-22T12:25:44;3.40;;;2.47;;
78143;SDS011;67394;52.522;13.622;2023-06-22T12:28:11;2.80;;;2.45;;
78143;SDS011;67394;52.522;13.622;2023-06-22T12:30:40;3.17;;;2.33;;
78143;SDS011;67394;52.522;13.622;2023-06-22T12:33:07;4.53;;;2.50;;
78143;SDS011;67394;52.522;13.622;2023-06-22T12:35:34;3.72;;;2.72;;
78143;SDS011;67394;52.522;13.622;2023-06-22T12:38:03;3.25;;;2.38;;
78143;SDS011;67394;52.522;13.622;2023-06-22T12:40:30;3.40;;;2.38;;
78143;SDS011;67394;52.522;13.622;2023-06-22T12:42:58;4.15;;;2.60;;
78143;SDS011;67394;52.522;13.622;2023-06-22T12:45:25;5.13;;;2.83;;
78143;SDS011;67394;52.522;13.622;2023-06-22T12:47:52;4.78;;;2.67;;
78143;SDS011;67394;52.522;13.622;2023-06-22T12:50:19;4.10;;;2.42;;
78143;SDS011;67394;52.522;13.622;2023-06-22T12:52:46;3.47;;;2.58;;
78143;SDS011;67394;52.522;13.622;2023-06-22T12:55:13;3.45;;;2.63;;
78143;SDS011;67394;52.522;13.622;2023-06-22T12:57:40;2.88;;;2.40;;
78143;SDS011;67394;52.522;13.622;2023-06-22T13:00:07;3.47;;;2.30;;
78143;SDS011;67394;52.522;13.622;2023-06-22T13:02:34;2.80;;;2.30;;
78143;SDS011;67394;52.522;13.622;2023-06-22T13:05:01;3.00;;;2.47;;
78143;SDS011;67394;52.522;13.622;2023-06-22T13:07:29;3.58;;;2.42;;
78143;SDS011;67394;52.522;13.622;2023-06-22T13:09:56;3.78;;;2.78;;
78143;SDS011;67394;52.522;13.622;2023-06-22T13:12:24;3.88;;;2.97;;
78143;SDS011;67394;52.522;13.622;2023-06-22T13:14:50;3.78;;;2.72;;
78143;SDS011;67394;52.522;13.622;2023-06-22T13:17:17;3.75;;;2.75;;
78143;SDS011;67394;52.522;13.622;2023-06-22T13:19:44;3.40;;;2.70;;
78143;SDS011;67394;52.522;13.622;2023-06-22T13:22:30;3.47;;;2.70;;
78143;SDS011;67394;52.522;13.622;2023-06-22T13:24:59;3.55;;;2.70;;
78143;SDS011;67394;52.522;13.622;2023-06-22T13:27:26;4.55;;;3.25;;
78143;SDS011;67394;52.522;13.622;2023-06-22T13:29:53;4.28;;;3.03;;
78143;SDS011;67394;52.522;13.622;2023-06-22T13:32:20;3.03;;;2.58;;
78143;SDS011;67394;52.522;13.622;2023-06-22T13:34:47;3.92;;;2.83;;
78143;SDS011;67394;52.522;13.622;2023-06-22T13:37:14;4.22;;;2.95;;
78143;SDS011;67394;52.522;13.622;2023-06-22T13:39:42;3.22;;;2.50;;
78143;SDS011;67394;52.522;13.622;2023-06-22T13:42:10;3.28;;;2.53;;
78143;SDS011;67394;52.522;13.622;2023-06-22T13:44:38;4.60;;;3.03;;
78143;SDS011;67394;52.522;13.622;2023-06-22T13:47:05;4.07;;;2.85;;
78143;SDS011;67394;52.522;13.622;2023-06-22T13:49:32;3.35;;;2.58;;
78143;SDS011;67394;52.522;13.622;2023-06-22T13:51:59;3.60;;;2.85;;
78143;SDS011;67394;52.522;13.622;2023-06-22T13:54:25;4.15;;;3.15;;
78143;SDS011;67394;52.522;13.622;2023-06-22T13:56:56;4.32;;;3.28;;
78143;SDS011;67394;52.522;13.622;2023-06-22T13:59:24;3.25;;;2.67;;
78143;SDS011;67394;52.522;13.622;2023-06-22T14:01:51;5.20;;;2.80;;
78143;SDS011;67394;52.522;13.622;2023-06-22T14:04:18;3.20;;;2.63;;
78143;SDS011;67394;52.522;13.622;2023-06-22T14:06:45;3.80;;;2.45;;
78143;SDS011;67394;52.522;13.622;2023-06-22T14:09:12;4.10;;;2.70;;
78143;SDS011;67394;52.522;13.622;2023-06-22T14:11:39;3.90;;;2.88;;
78143;SDS011;67394;52.522;13.622;2023-06-22T14:14:06;4.63;;;2.83;;
78143;SDS011;67394;52.522;13.622;2023-06-22T14:16:33;3.67;;;2.67;;
78143;SDS011;67394;52.522;13.622;2023-06-22T14:18:59;3.67;;;2.97;;
78143;SDS011;67394;52.522;13.622;2023-06-22T14:21:26;4.38;;;3.15;;
78143;SDS011;67394;52.522;13.622;2023-06-22T14:23:52;3.83;;;2.58;;
78143;SDS011;67394;52.522;13.622;2023-06-22T14:26:19;3.38;;;2.60;;
78143;SDS011;67394;52.522;13.622;2023-06-22T14:28:46;3.20;;;2.58;;
78143;SDS011;67394;52.522;13.622;2023-06-22T14:31:14;4.63;;;3.38;;
78143;SDS011;67394;52.522;13.622;2023-06-22T14:33:43;3.58;;;2.75;;
78143;SDS011;67394;52.522;13.622;2023-06-22T14:36:12;4.32;;;3.13;;
78143;SDS011;67394;52.522;13.622;2023-06-22T14:38:39;4.00;;;3.10;;
78143;SDS011;67394;52.522;13.622;2023-06-22T14:41:06;3.03;;;2.60;;
78143;SDS011;67394;52.522;13.622;2023-06-22T14:43:43;3.55;;;2.80;;
78143;SDS011;67394;52.522;13.622;2023-06-22T14:46:14;4.95;;;2.50;;
78143;SDS011;67394;52.522;13.622;2023-06-22T14:48:42;4.85;;;2.97;;
78143;SDS011;67394;52.522;13.622;2023-06-22T14:51:10;4.55;;;2.83;;
78143;SDS011;67394;52.522;13.622;2023-06-22T14:53:43;5.60;;;3.00;;
78143;SDS011;67394;52.522;13.622;2023-06-22T14:56:12;4.85;;;3.22;;
78143;SDS011;67394;52.522;13.622;2023-06-22T14:58:40;3.78;;;3.20;;
78143;SDS011;67394;52.522;13.622;2023-06-22T15:01:08;4.13;;;3.08;;
78143;SDS011;67394;52.522;13.622;2023-06-22T15:03:34;4.22;;;2.85;;
78143;SDS011;67394;52.522;13.622;2023-06-22T15:06:02;3.83;;;3.25;;
78143;SDS011;67394;52.522;13.622;2023-06-22T15:08:32;4.70;;;3.33;;
78143;SDS011;67394;52.522;13.622;2023-06-22T15:10:59;4.15;;;3.20;;
78143;SDS011;67394;52.522;13.622;2023-06-22T15:13:26;3.72;;;3.03;;
78143;SDS011;67394;52.522;13.622;2023-06-22T15:15:53;4.55;;;3.10;;
78143;SDS011;67394;52.522;13.622;2023-06-22T15:18:20;3.80;;;3.00;;
78143;SDS011;67394;52.522;13.622;2023-06-22T15:20:46;4.22;;;2.95;;
78143;SDS011;67394;52.522;13.622;2023-06-22T15:23:13;4.22;;;3.25;;
78143;SDS011;67394;52.522;13.622;2023-06-22T15:25:39;4.30;;;3.00;;
78143;SDS011;67394;52.522;13.622;2023-06-22T15:28:07;3.90;;;3.10;;
78143;SDS011;67394;52.522;13.622;2023-06-22T15:30:33;5.18;;;3.40;;
78143;SDS011;67394;52.522;13.622;2023-06-22T15:33:00;3.80;;;3.15;;
78143;SDS011;67394;52.522;13.622;2023-06-22T15:35:27;3.92;;;3.15;;
78143;SDS011;67394;52.522;13.622;2023-06-22T15:37:54;3.47;;;2.80;;
78143;SDS011;67394;52.522;13.622;2023-06-22T15:40:21;4.25;;;3.58;;
78143;SDS011;67394;52.522;13.622;2023-06-22T15:42:51;3.95;;;2.97;;
78143;SDS011;67394;52.522;13.622;2023-06-22T15:45:19;3.72;;;2.92;;
78143;SDS011;67394;52.522;13.622;2023-06-22T15:47:47;3.88;;;3.00;;
78143;SDS011;67394;52.522;13.622;2023-06-22T15:50:13;3.83;;;3.25;;
78143;SDS011;67394;52.522;13.622;2023-06-22T15:52:43;4.07;;;2.95;;
78143;SDS011;67394;52.522;13.622;2023-06-22T15:55:10;4.30;;;2.95;;
78143;SDS011;67394;52.522;13.622;2023-06-22T15:57:37;5.47;;;3.72;;
78143;SDS011;67394;52.522;13.622;2023-06-22T16:00:04;5.25;;;3.33;;
78143;SDS011;67394;52.522;13.622;2023-06-22T16:02:32;5.40;;;3.67;;
78143;SDS011;67394;52.522;13.622;2023-06-22T16:05:01;4.28;;;3.50;;
78143;SDS011;67394;52.522;13.622;2023-06-22T16:07:32;4.30;;;3.28;;
78143;SDS011;67394;52.522;13.622;2023-06-22T16:09:59;4.53;;;2.80;;